createdAt,value
2019-05-06T00:02:30.028Z,4.90
2019-05-06T00:05:35.115Z,4.90
2019-05-06T00:08:40.111Z,4.90
2019-05-06T00:11:45.186Z,5.00
2019-05-06T00:14:50.102Z,5.00
2019-05-06T00:17:55.164Z,5.00
2019-05-06T00:21:00.226Z,5.00
2019-05-06T00:24:05.369Z,5.00
2019-05-06T00:27:25.595Z,5.00
2019-05-06T00:30:30.664Z,4.90
2019-05-06T00:33:35.762Z,4.90
2019-05-06T00:36:40.831Z,4.80
2019-05-06T00:40:00.500Z,4.70
2019-05-06T00:43:07.531Z,4.70
2019-05-06T00:46:13.854Z,4.70
2019-05-06T00:49:19.051Z,4.70
2019-05-06T00:52:26.002Z,4.70
2019-05-06T00:55:31.162Z,4.60
2019-05-06T00:58:36.149Z,4.60
2019-05-06T01:01:41.059Z,4.60
2019-05-06T01:04:45.969Z,4.50
2019-05-06T01:07:54.879Z,4.50
2019-05-06T01:11:00.381Z,4.50
2019-05-06T01:14:09.947Z,4.40
2019-05-06T01:17:14.942Z,4.30
2019-05-06T01:20:19.982Z,4.20
2019-05-06T01:23:24.902Z,4.10
2019-05-06T01:26:29.829Z,4.10
2019-05-06T01:29:34.947Z,4.10
2019-05-06T01:32:40.059Z,4.20
2019-05-06T01:35:44.988Z,4.20
2019-05-06T01:39:13.885Z,4.20
2019-05-06T01:42:40.887Z,4.20
2019-05-06T01:45:45.889Z,4.20
2019-05-06T01:48:50.882Z,4.00
2019-05-06T01:51:55.938Z,3.90
2019-05-06T01:55:00.847Z,3.80
2019-05-06T01:58:05.762Z,3.70
2019-05-06T02:01:10.754Z,3.70
2019-05-06T02:04:15.825Z,3.70
2019-05-06T02:07:20.746Z,3.80
2019-05-06T02:10:25.721Z,3.80
2019-05-06T02:13:30.781Z,3.80
2019-05-06T02:16:35.766Z,3.90
2019-05-06T02:19:40.757Z,3.90
2019-05-06T02:22:53.765Z,3.90
2019-05-06T02:25:58.522Z,3.90
2019-05-06T02:29:05.237Z,3.90
2019-05-06T02:32:27.134Z,3.80
2019-05-06T02:35:34.972Z,3.80
2019-05-06T02:38:48.039Z,3.80
2019-05-06T02:41:46.696Z,3.80
2019-05-06T02:44:54.147Z,3.80
2019-05-06T02:48:15.600Z,3.80
2019-05-06T02:51:24.457Z,3.80
2019-05-06T02:54:29.574Z,3.70
2019-05-06T02:57:34.622Z,3.80
2019-05-06T03:00:42.425Z,3.80
2019-05-06T03:03:46.291Z,3.80
2019-05-06T03:06:53.321Z,3.70
2019-05-06T03:09:57.815Z,3.70
2019-05-06T03:13:03.119Z,3.70
2019-05-06T03:16:08.078Z,3.70
2019-05-06T03:19:13.578Z,3.60
2019-05-06T03:22:49.709Z,3.70
2019-05-06T03:25:54.779Z,3.80
2019-05-06T03:29:02.268Z,3.80
2019-05-06T03:32:07.682Z,3.80
2019-05-06T03:35:27.399Z,3.80
2019-05-06T03:38:22.695Z,3.90
2019-05-06T03:41:26.882Z,3.90
2019-05-06T03:44:33.233Z,3.80
2019-05-06T03:47:55.566Z,3.70
2019-05-06T03:51:03.834Z,3.60
2019-05-06T03:54:07.298Z,3.50
2019-05-06T03:57:13.870Z,3.60
2019-05-06T04:00:19.032Z,3.70
2019-05-06T04:03:41.955Z,3.80
2019-05-06T04:06:33.320Z,3.80
2019-05-06T04:09:38.488Z,3.90
2019-05-06T04:12:45.003Z,4.00
2019-05-06T04:15:57.031Z,4.00
2019-05-06T04:19:12.820Z,4.00
2019-05-06T04:22:23.685Z,4.00
2019-05-06T04:25:47.032Z,4.00
2019-05-06T04:28:53.520Z,4.00
2019-05-06T04:31:58.592Z,4.10
2019-05-06T04:35:04.733Z,4.20
2019-05-06T04:38:09.937Z,4.30
2019-05-06T04:41:14.988Z,4.30
2019-05-06T04:44:23.514Z,4.30
2019-05-06T04:47:26.964Z,4.30
2019-05-06T04:50:33.255Z,4.30
2019-05-06T04:53:38.470Z,4.30
2019-05-06T04:56:44.017Z,4.40
2019-05-06T04:59:49.194Z,4.50
2019-05-06T05:02:55.006Z,4.50
2019-05-06T05:06:03.038Z,4.50
2019-05-06T05:09:07.317Z,4.60
2019-05-06T05:12:19.705Z,4.70
2019-05-06T05:15:52.685Z,4.70
2019-05-06T05:19:04.220Z,4.60
2019-05-06T05:22:09.986Z,4.60
2019-05-06T05:25:15.546Z,4.60
2019-05-06T05:28:22.277Z,4.50
2019-05-06T05:31:27.769Z,4.50
2019-05-06T05:34:40.305Z,4.50
2019-05-06T05:37:41.475Z,4.60
2019-05-06T05:40:46.753Z,4.60
2019-05-06T05:43:56.574Z,4.60
2019-05-06T05:47:03.414Z,4.80
2019-05-06T05:50:14.705Z,4.90
2019-05-06T05:53:19.826Z,5.20
2019-05-06T05:56:24.818Z,5.70
2019-05-06T05:59:32.898Z,6.10
2019-05-06T06:02:38.123Z,6.40
2019-05-06T06:05:43.470Z,6.60
2019-05-06T06:08:48.612Z,6.80
2019-05-06T06:11:55.546Z,6.90
2019-05-06T06:15:18.010Z,7.20
2019-05-06T06:18:43.261Z,7.30
2019-05-06T06:21:53.736Z,7.40
2019-05-06T06:24:58.807Z,7.70
2019-05-06T06:28:03.967Z,7.90
2019-05-06T06:31:33.107Z,8.00
2019-05-06T06:35:10.123Z,8.00
2019-05-06T06:38:15.779Z,8.30
2019-05-06T06:41:22.789Z,8.40
2019-05-06T06:44:32.946Z,8.40
2019-05-06T06:47:37.461Z,8.40
2019-05-06T06:50:42.794Z,8.50
2019-05-06T06:53:47.900Z,8.60
2019-05-06T06:57:09.511Z,8.50
2019-05-06T07:00:33.680Z,8.50
2019-05-06T07:03:46.484Z,8.70
2019-05-06T07:06:54.369Z,8.80
2019-05-06T07:09:59.290Z,8.90
2019-05-06T07:13:04.445Z,8.90
2019-05-06T07:16:09.417Z,9.00
2019-05-06T07:19:17.040Z,9.00
2019-05-06T07:22:23.598Z,9.10
2019-05-06T07:25:28.593Z,9.10
2019-05-06T07:28:33.658Z,9.10
2019-05-06T07:31:38.740Z,9.00
2019-05-06T07:34:43.712Z,9.00
2019-05-06T07:37:48.697Z,9.10
2019-05-06T07:41:04.192Z,9.00
2019-05-06T07:44:25.170Z,9.00
2019-05-06T07:47:49.250Z,9.10
2019-05-06T07:50:54.343Z,9.20
2019-05-06T07:53:59.379Z,9.30
2019-05-06T07:57:04.441Z,9.50
2019-05-06T08:00:09.438Z,9.70
2019-05-06T08:03:14.326Z,9.90
2019-05-06T08:06:19.332Z,10.00
2019-05-06T08:09:24.317Z,10.20
2019-05-06T08:12:29.319Z,10.20
2019-05-06T08:15:34.470Z,10.20
2019-05-06T08:18:39.403Z,10.20
2019-05-06T08:21:46.044Z,10.20
2019-05-06T08:24:53.207Z,9.90
2019-05-06T08:27:57.722Z,9.70
2019-05-06T08:31:02.642Z,9.50
2019-05-06T08:34:07.717Z,9.40
2019-05-06T08:37:24.541Z,9.50
2019-05-06T08:40:29.548Z,9.50
2019-05-06T08:43:34.549Z,9.30
2019-05-06T08:46:39.706Z,9.40
2019-05-06T08:50:15.891Z,9.70
2019-05-06T08:53:39.962Z,9.90
2019-05-06T08:56:45.031Z,9.90
2019-05-06T08:59:49.950Z,9.90
2019-05-06T09:02:55.027Z,9.90
2019-05-06T09:06:00.011Z,10.00
2019-05-06T09:09:07.010Z,10.10
2019-05-06T09:12:13.037Z,10.30
2019-05-06T09:15:18.191Z,10.50
2019-05-06T09:18:24.078Z,10.60
2019-05-06T09:21:29.395Z,10.60
2019-05-06T09:24:34.322Z,10.60
2019-05-06T09:27:57.011Z,10.50
2019-05-06T09:31:12.504Z,10.60
2019-05-06T09:34:28.725Z,10.70
2019-05-06T09:37:33.706Z,10.80
2019-05-06T09:40:38.774Z,11.00
2019-05-06T09:43:43.762Z,11.00
2019-05-06T09:46:48.774Z,11.00
2019-05-06T09:49:53.827Z,11.20
2019-05-06T09:52:58.763Z,11.40
2019-05-06T09:56:22.897Z,11.50
2019-05-06T09:59:27.427Z,11.60
2019-05-06T10:02:32.727Z,11.70
2019-05-06T10:05:37.786Z,11.70
2019-05-06T10:08:42.789Z,11.30
2019-05-06T10:11:47.773Z,10.90
2019-05-06T10:14:53.385Z,10.60
2019-05-06T10:18:07.615Z,10.50
2019-05-06T10:21:12.625Z,10.30
2019-05-06T10:24:17.754Z,10.40
2019-05-06T10:27:22.835Z,10.40
2019-05-06T10:30:27.817Z,10.40
2019-05-06T10:33:33.766Z,10.50
2019-05-06T10:36:54.473Z,10.50
2019-05-06T10:40:07.263Z,10.50
2019-05-06T10:43:34.122Z,10.50
2019-05-06T10:46:39.109Z,10.50
2019-05-06T10:49:44.113Z,10.50
2019-05-06T10:53:13.373Z,10.60
2019-05-06T10:56:49.757Z,10.70
2019-05-06T10:59:42.936Z,10.80
2019-05-06T11:02:57.791Z,10.90
2019-05-06T11:06:02.878Z,11.00
2019-05-06T11:09:09.453Z,11.30
2019-05-06T11:12:14.526Z,11.40
2019-05-06T11:15:19.586Z,11.60
2019-05-06T11:18:24.517Z,11.70
2019-05-06T11:21:29.502Z,11.70
2019-05-06T11:24:34.519Z,11.80
2019-05-06T11:27:41.821Z,12.10
2019-05-06T11:31:04.382Z,12.20
2019-05-06T11:34:28.499Z,12.10
2019-05-06T11:37:58.786Z,12.00
2019-05-06T11:41:03.863Z,12.00
2019-05-06T11:44:09.290Z,11.80
2019-05-06T11:47:14.474Z,11.60
2019-05-06T11:50:19.541Z,11.40
2019-05-06T11:53:24.467Z,11.10
2019-05-06T11:56:29.528Z,11.00
2019-05-06T11:59:34.543Z,10.90
2019-05-06T12:02:42.118Z,10.90
2019-05-06T12:05:46.214Z,10.90
2019-05-06T12:08:52.453Z,10.80
2019-05-06T12:11:57.993Z,10.60
2019-05-06T12:15:04.293Z,10.70
2019-05-06T12:18:09.618Z,10.90
2019-05-06T12:21:19.165Z,11.20
2019-05-06T12:24:22.882Z,11.40
2019-05-06T12:27:46.239Z,11.70
2019-05-06T12:30:52.416Z,11.90
2019-05-06T12:33:57.607Z,11.90
2019-05-06T12:37:04.602Z,11.90
2019-05-06T12:40:09.650Z,11.80
2019-05-06T12:43:33.055Z,11.80
2019-05-06T12:46:47.929Z,11.80
2019-05-06T12:49:53.517Z,11.90
2019-05-06T12:52:58.822Z,11.90
2019-05-06T12:56:03.909Z,12.10
2019-05-06T12:59:08.895Z,12.30
2019-05-06T13:02:14.055Z,12.30
2019-05-06T13:05:19.133Z,12.10
2019-05-06T13:08:29.057Z,12.00
2019-05-06T13:11:30.849Z,12.00
2019-05-06T13:14:35.788Z,11.90
2019-05-06T13:17:42.505Z,11.80
2019-05-06T13:20:51.146Z,11.80
2019-05-06T13:23:59.518Z,11.80
2019-05-06T13:27:06.315Z,11.80
2019-05-06T13:30:12.892Z,12.10
2019-05-06T13:33:29.313Z,12.40
2019-05-06T13:36:34.441Z,12.30
2019-05-06T13:39:39.392Z,12.10
2019-05-06T13:43:03.474Z,12.00
2019-05-06T13:46:34.746Z,12.00
2019-05-06T13:49:49.237Z,12.00
2019-05-06T13:53:08.310Z,12.30
2019-05-06T13:56:04.608Z,12.30
2019-05-06T13:59:09.296Z,12.50
2019-05-06T14:02:39.173Z,12.90
2019-05-06T14:05:44.253Z,13.30
2019-05-06T14:08:49.257Z,13.60
2019-05-06T14:11:54.202Z,13.60
2019-05-06T14:14:59.202Z,13.50
2019-05-06T14:18:04.365Z,13.30
2019-05-06T14:21:09.383Z,13.00
2019-05-06T14:24:17.313Z,12.90
2019-05-06T14:27:22.150Z,12.70
2019-05-06T14:30:46.461Z,12.50
2019-05-06T14:33:52.245Z,12.30
2019-05-06T14:36:57.457Z,12.00
2019-05-06T14:40:04.212Z,11.90
2019-05-06T14:43:09.204Z,11.90
2019-05-06T14:46:14.223Z,12.10
2019-05-06T14:49:19.210Z,12.20
2019-05-06T14:52:24.141Z,12.20
2019-05-06T14:55:32.723Z,12.30
2019-05-06T14:58:37.889Z,12.40
2019-05-06T15:01:45.440Z,12.40
2019-05-06T15:04:49.633Z,12.50
2019-05-06T15:07:54.571Z,12.50
2019-05-06T15:10:59.530Z,12.40
2019-05-06T15:14:05.105Z,12.40
2019-05-06T15:17:10.085Z,12.30
2019-05-06T15:20:15.375Z,12.20
2019-05-06T15:23:22.397Z,12.00
2019-05-06T15:26:27.213Z,11.90
2019-05-06T15:29:32.328Z,11.80
2019-05-06T15:32:38.965Z,11.70
2019-05-06T15:36:04.311Z,11.50
2019-05-06T15:39:09.465Z,11.50
2019-05-06T15:42:14.618Z,11.40
2019-05-06T15:45:21.756Z,11.40
2019-05-06T15:48:26.564Z,11.40
2019-05-06T15:51:34.635Z,11.40
2019-05-06T15:54:39.630Z,11.50
2019-05-06T15:57:44.713Z,11.60
2019-05-06T16:00:49.738Z,11.70
2019-05-06T16:03:54.775Z,11.70
2019-05-06T16:06:59.719Z,11.90
2019-05-06T16:10:05.530Z,11.90
2019-05-06T16:13:12.762Z,11.90
2019-05-06T16:16:17.194Z,11.80
2019-05-06T16:19:23.027Z,11.70
2019-05-06T16:22:28.134Z,11.60
2019-05-06T16:25:33.073Z,11.60
2019-05-06T16:28:38.092Z,11.50
2019-05-06T16:31:43.061Z,11.50
2019-05-06T16:34:48.064Z,11.50
2019-05-06T16:37:53.156Z,11.40
2019-05-06T16:41:10.356Z,11.40
2019-05-06T16:44:04.979Z,11.40
2019-05-06T16:47:11.899Z,11.40
2019-05-06T16:50:18.486Z,11.40
2019-05-06T16:53:23.859Z,11.40
2019-05-06T16:56:34.466Z,11.50
2019-05-06T16:59:39.413Z,11.60
2019-05-06T17:03:14.565Z,11.70
2019-05-06T17:06:23.092Z,11.70
2019-05-06T17:09:28.276Z,11.70
2019-05-06T17:12:33.287Z,11.60
2019-05-06T17:15:38.301Z,11.60
2019-05-06T17:18:43.320Z,11.60
2019-05-06T17:21:48.612Z,11.50
2019-05-06T17:24:53.942Z,11.40
2019-05-06T17:28:14.286Z,11.40
2019-05-06T17:31:28.029Z,11.40
2019-05-06T17:34:35.907Z,11.40
2019-05-06T17:37:53.869Z,11.40
2019-05-06T17:40:58.993Z,11.30
2019-05-06T17:44:04.040Z,11.20
2019-05-06T17:47:26.375Z,11.10
2019-05-06T17:50:32.618Z,11.00
2019-05-06T17:53:39.092Z,10.90
2019-05-06T17:56:44.146Z,10.80
2019-05-06T17:59:49.428Z,10.80
2019-05-06T18:02:54.605Z,10.80
2019-05-06T18:05:59.690Z,10.80
2019-05-06T18:09:07.126Z,10.80
2019-05-06T18:12:12.315Z,10.70
2019-05-06T18:15:17.433Z,10.60
2019-05-06T18:18:28.434Z,10.60
2019-05-06T18:21:29.226Z,10.50
2019-05-06T18:24:34.298Z,10.40
2019-05-06T18:27:39.833Z,10.40
2019-05-06T18:30:45.054Z,10.40
2019-05-06T18:33:50.157Z,10.40
2019-05-06T18:36:55.470Z,10.40
2019-05-06T18:40:00.826Z,10.40
2019-05-06T18:43:05.916Z,10.30
2019-05-06T18:46:12.172Z,10.30
2019-05-06T18:49:17.381Z,10.30
2019-05-06T18:52:22.981Z,10.30
2019-05-06T18:55:28.077Z,10.30
2019-05-06T18:58:33.391Z,10.30
2019-05-06T19:01:38.533Z,10.20
2019-05-06T19:04:52.293Z,10.20
2019-05-06T19:07:57.670Z,10.20
2019-05-06T19:11:03.466Z,10.20
2019-05-06T19:14:08.506Z,10.20
2019-05-06T19:17:13.493Z,10.20
2019-05-06T19:20:18.649Z,10.10
2019-05-06T19:23:23.782Z,10.00
2019-05-06T19:26:28.853Z,10.00
2019-05-06T19:29:34.073Z,9.90
2019-05-06T19:32:39.711Z,9.90
2019-05-06T19:35:44.752Z,9.90
2019-05-06T19:38:49.884Z,9.90
2019-05-06T19:41:54.810Z,9.90
2019-05-06T19:45:02.323Z,9.90
2019-05-06T19:48:06.490Z,9.90
2019-05-06T19:51:11.433Z,9.90
2019-05-06T19:54:16.361Z,9.90
2019-05-06T19:57:21.635Z,9.80
2019-05-06T20:00:27.119Z,9.80
2019-05-06T20:03:32.858Z,9.70
2019-05-06T20:07:02.353Z,9.50
2019-05-06T20:10:26.452Z,9.50
2019-05-06T20:13:32.250Z,9.30
2019-05-06T20:16:37.349Z,9.20
2019-05-06T20:19:42.677Z,9.10
2019-05-06T20:22:47.755Z,9.00
2019-05-06T20:25:52.729Z,9.00
2019-05-06T20:28:57.653Z,8.90
2019-05-06T20:32:02.579Z,8.80
2019-05-06T20:35:08.269Z,8.70
2019-05-06T20:38:13.322Z,8.70
2019-05-06T20:41:18.329Z,8.70
2019-05-06T20:44:23.224Z,8.60
2019-05-06T20:47:28.141Z,8.50
2019-05-06T20:50:33.134Z,8.50
2019-05-06T20:53:38.048Z,8.40
2019-05-06T20:56:43.277Z,8.30
2019-05-06T20:59:48.321Z,8.30
2019-05-06T21:02:53.576Z,8.20
2019-05-06T21:05:58.757Z,8.10
2019-05-06T21:09:06.089Z,8.10
2019-05-06T21:12:11.062Z,8.10
2019-05-06T21:15:16.355Z,8.10
2019-05-06T21:18:22.939Z,8.10
2019-05-06T21:21:28.042Z,8.10
2019-05-06T21:24:35.742Z,8.20
2019-05-06T21:27:39.635Z,8.20
2019-05-06T21:30:44.549Z,8.30
2019-05-06T21:33:49.619Z,8.30
2019-05-06T21:36:54.604Z,8.30
2019-05-06T21:39:59.610Z,8.40
2019-05-06T21:43:04.535Z,8.50
2019-05-06T21:46:09.447Z,8.50
2019-05-06T21:49:14.356Z,8.50
2019-05-06T21:52:33.649Z,8.50
2019-05-06T21:55:25.933Z,8.50
2019-05-06T21:58:30.837Z,8.50
2019-05-06T22:01:36.777Z,8.50
2019-05-06T22:04:43.338Z,8.50
2019-05-06T22:07:48.510Z,8.50
2019-05-06T22:10:53.426Z,8.50
2019-05-06T22:14:01.578Z,8.40
2019-05-06T22:17:06.846Z,8.40
2019-05-06T22:20:12.029Z,8.40
2019-05-06T22:23:17.010Z,8.30
2019-05-06T22:26:23.147Z,8.30
2019-05-06T22:29:28.469Z,8.20
2019-05-06T22:32:45.233Z,8.10
2019-05-06T22:35:52.027Z,8.10
2019-05-06T22:38:56.749Z,8.00
2019-05-06T22:42:01.749Z,8.00
2019-05-06T22:45:07.252Z,7.90
2019-05-06T22:48:12.237Z,7.90
2019-05-06T22:51:17.294Z,7.80
2019-05-06T22:54:24.372Z,7.80
2019-05-06T22:57:28.962Z,7.70
2019-05-06T23:00:35.585Z,7.60
2019-05-06T23:03:42.905Z,7.60
2019-05-06T23:06:47.096Z,7.60
2019-05-06T23:09:52.226Z,7.60
2019-05-06T23:12:57.270Z,7.60
2019-05-06T23:16:02.193Z,7.60
2019-05-06T23:19:07.242Z,7.60
2019-05-06T23:22:12.291Z,7.50
2019-05-06T23:25:17.217Z,7.50
2019-05-06T23:28:22.722Z,7.50
2019-05-06T23:31:27.850Z,7.40
2019-05-06T23:34:32.791Z,7.40
2019-05-06T23:38:13.732Z,7.40
2019-05-06T23:41:54.637Z,7.30
2019-05-06T23:45:35.768Z,7.30
2019-05-06T23:49:17.093Z,7.20
2019-05-06T23:52:58.100Z,7.10
2019-05-06T23:56:39.594Z,7.00
2019-05-06T23:59:44.527Z,6.90
